sensor_id;sensor_type;location;lat;lon;timestamp;P1;durP1;ratioP1;P2;durP2;ratioP2
5890;SDS011;2971;52.420;7.080;2023-07-20T00:01:24;5.10;;;3.90;;
5890;SDS011;2971;52.420;7.080;2023-07-20T00:03:49;4.30;;;3.90;;
5890;SDS011;2971;52.420;7.080;2023-07-20T00:06:20;5.27;;;4.70;;
5890;SDS011;2971;52.420;7.080;2023-07-20T00:08:45;5.90;;;4.90;;
5890;SDS011;2971;52.420;7.080;2023-07-20T00:11:10;5.17;;;4.67;;
5890;SDS011;2971;52.420;7.080;2023-07-20T00:13:35;5.30;;;4.90;;
5890;SDS011;2971;52.420;7.080;2023-07-20T00:16:01;6.13;;;5.20;;
5890;SDS011;2971;52.420;7.080;2023-07-20T00:18:26;5.50;;;4.90;;
5890;SDS011;2971;52.420;7.080;2023-07-20T00:20:51;5.43;;;4.93;;
5890;SDS011;2971;52.420;7.080;2023-07-20T00:23:16;6.80;;;5.50;;
5890;SDS011;2971;52.420;7.080;2023-07-20T00:25:42;6.33;;;5.80;;
5890;SDS011;2971;52.420;7.080;2023-07-20T00:28:07;7.07;;;6.47;;
5890;SDS011;2971;52.420;7.080;2023-07-20T00:30:32;7.53;;;6.73;;
5890;SDS011;2971;52.420;7.080;2023-07-20T00:32:57;6.87;;;6.27;;
5890;SDS011;2971;52.420;7.080;2023-07-20T00:35:23;6.83;;;6.23;;
5890;SDS011;2971;52.420;7.080;2023-07-20T00:37:48;6.53;;;5.97;;
5890;SDS011;2971;52.420;7.080;2023-07-20T00:40:13;6.83;;;6.03;;
5890;SDS011;2971;52.420;7.080;2023-07-20T00:42:38;7.27;;;6.57;;
5890;SDS011;2971;52.420;7.080;2023-07-20T00:45:04;7.33;;;6.63;;
5890;SDS011;2971;52.420;7.080;2023-07-20T00:47:30;7.50;;;6.90;;
5890;SDS011;2971;52.420;7.080;2023-07-20T00:49:55;7.90;;;7.20;;
5890;SDS011;2971;52.420;7.080;2023-07-20T00:52:21;9.10;;;8.30;;
5890;SDS011;2971;52.420;7.080;2023-07-20T00:54:47;9.87;;;8.97;;
5890;SDS011;2971;52.420;7.080;2023-07-20T00:57:16;10.10;;;9.17;;
5890;SDS011;2971;52.420;7.080;2023-07-20T00:59:42;9.70;;;8.80;;
5890;SDS011;2971;52.420;7.080;2023-07-20T01:02:08;9.63;;;8.73;;
5890;SDS011;2971;52.420;7.080;2023-07-20T01:04:33;11.47;;;10.47;;
5890;SDS011;2971;52.420;7.080;2023-07-20T01:07:14;11.73;;;10.63;;
5890;SDS011;2971;52.420;7.080;2023-07-20T01:09:42;13.37;;;12.27;;
5890;SDS011;2971;52.420;7.080;2023-07-20T01:12:51;14.87;;;13.47;;
5890;SDS011;2971;52.420;7.080;2023-07-20T01:14:57;15.67;;;14.27;;
5890;SDS011;2971;52.420;7.080;2023-07-20T01:17:22;16.73;;;15.33;;
5890;SDS011;2971;52.420;7.080;2023-07-20T01:19:49;18.10;;;16.60;;
5890;SDS011;2971;52.420;7.080;2023-07-20T01:30:08;21.50;;;19.60;;
5890;SDS011;2971;52.420;7.080;2023-07-20T01:32:36;20.27;;;18.47;;
5890;SDS011;2971;52.420;7.080;2023-07-20T01:35:03;21.23;;;19.40;;
5890;SDS011;2971;52.420;7.080;2023-07-20T01:37:30;21.73;;;19.80;;
5890;SDS011;2971;52.420;7.080;2023-07-20T01:39:57;22.67;;;20.67;;
5890;SDS011;2971;52.420;7.080;2023-07-20T01:42:22;22.83;;;20.93;;
5890;SDS011;2971;52.420;7.080;2023-07-20T01:44:51;22.03;;;20.13;;
5890;SDS011;2971;52.420;7.080;2023-07-20T01:47:20;23.47;;;21.40;;
5890;SDS011;2971;52.420;7.080;2023-07-20T01:49:45;23.77;;;21.77;;
5890;SDS011;2971;52.420;7.080;2023-07-20T01:52:10;23.90;;;21.90;;
5890;SDS011;2971;52.420;7.080;2023-07-20T01:54:35;23.20;;;21.10;;
5890;SDS011;2971;52.420;7.080;2023-07-20T01:57:01;21.97;;;20.07;;
5890;SDS011;2971;52.420;7.080;2023-07-20T01:59:26;22.60;;;20.60;;
5890;SDS011;2971;52.420;7.080;2023-07-20T02:01:52;21.53;;;19.67;;
5890;SDS011;2971;52.420;7.080;2023-07-20T02:04:17;23.30;;;21.20;;
5890;SDS011;2971;52.420;7.080;2023-07-20T02:06:42;22.80;;;20.90;;
5890;SDS011;2971;52.420;7.080;2023-07-20T02:09:08;22.27;;;20.30;;
5890;SDS011;2971;52.420;7.080;2023-07-20T02:11:33;22.10;;;20.30;;
5890;SDS011;2971;52.420;7.080;2023-07-20T02:13:58;22.37;;;20.37;;
5890;SDS011;2971;52.420;7.080;2023-07-20T02:16:23;21.00;;;19.20;;
5890;SDS011;2971;52.420;7.080;2023-07-20T02:18:49;20.13;;;18.43;;
5890;SDS011;2971;52.420;7.080;2023-07-20T02:21:14;19.33;;;17.73;;
5890;SDS011;2971;52.420;7.080;2023-07-20T02:23:39;18.60;;;17.00;;
5890;SDS011;2971;52.420;7.080;2023-07-20T02:26:04;19.00;;;17.40;;
5890;SDS011;2971;52.420;7.080;2023-07-20T02:28:30;19.30;;;17.63;;
5890;SDS011;2971;52.420;7.080;2023-07-20T02:30:55;18.90;;;17.23;;
5890;SDS011;2971;52.420;7.080;2023-07-20T02:33:20;18.70;;;17.20;;
5890;SDS011;2971;52.420;7.080;2023-07-20T02:35:46;18.13;;;16.63;;
5890;SDS011;2971;52.420;7.080;2023-07-20T02:38:13;16.67;;;15.27;;
5890;SDS011;2971;52.420;7.080;2023-07-20T02:40:38;16.60;;;15.20;;
5890;SDS011;2971;52.420;7.080;2023-07-20T02:43:03;17.73;;;16.33;;
5890;SDS011;2971;52.420;7.080;2023-07-20T02:45:28;16.77;;;15.27;;
5890;SDS011;2971;52.420;7.080;2023-07-20T02:47:54;16.50;;;15.20;;
5890;SDS011;2971;52.420;7.080;2023-07-20T02:50:19;15.90;;;14.50;;
5890;SDS011;2971;52.420;7.080;2023-07-20T02:52:44;15.07;;;13.80;;
5890;SDS011;2971;52.420;7.080;2023-07-20T02:55:10;14.80;;;13.50;;
5890;SDS011;2971;52.420;7.080;2023-07-20T02:57:35;15.43;;;14.03;;
5890;SDS011;2971;52.420;7.080;2023-07-20T03:00:02;15.47;;;14.23;;
5890;SDS011;2971;52.420;7.080;2023-07-20T03:02:29;13.70;;;12.50;;
5890;SDS011;2971;52.420;7.080;2023-07-20T03:04:54;14.30;;;13.10;;
5890;SDS011;2971;52.420;7.080;2023-07-20T03:07:22;13.57;;;12.47;;
5890;SDS011;2971;52.420;7.080;2023-07-20T03:09:47;13.93;;;12.63;;
5890;SDS011;2971;52.420;7.080;2023-07-20T03:12:12;13.67;;;12.47;;
5890;SDS011;2971;52.420;7.080;2023-07-20T03:14:38;13.53;;;12.40;;
5890;SDS011;2971;52.420;7.080;2023-07-20T03:17:03;13.33;;;12.33;;
5890;SDS011;2971;52.420;7.080;2023-07-20T03:19:29;13.23;;;12.13;;
5890;SDS011;2971;52.420;7.080;2023-07-20T03:21:55;15.13;;;13.83;;
5890;SDS011;2971;52.420;7.080;2023-07-20T03:24:20;15.30;;;14.00;;
5890;SDS011;2971;52.420;7.080;2023-07-20T03:26:46;14.97;;;13.67;;
5890;SDS011;2971;52.420;7.080;2023-07-20T03:29:11;16.00;;;14.57;;
5890;SDS011;2971;52.420;7.080;2023-07-20T03:31:36;15.67;;;14.37;;
5890;SDS011;2971;52.420;7.080;2023-07-20T03:34:01;15.60;;;14.20;;
5890;SDS011;2971;52.420;7.080;2023-07-20T03:36:27;16.20;;;14.80;;
5890;SDS011;2971;52.420;7.080;2023-07-20T03:38:52;17.40;;;15.87;;
5890;SDS011;2971;52.420;7.080;2023-07-20T03:41:17;17.00;;;15.53;;
5890;SDS011;2971;52.420;7.080;2023-07-20T03:43:44;18.13;;;16.50;;
5890;SDS011;2971;52.420;7.080;2023-07-20T03:46:10;18.33;;;16.63;;
5890;SDS011;2971;52.420;7.080;2023-07-20T03:48:35;17.17;;;15.67;;
5890;SDS011;2971;52.420;7.080;2023-07-20T03:51:01;19.83;;;18.03;;
5890;SDS011;2971;52.420;7.080;2023-07-20T03:53:26;20.97;;;19.17;;
5890;SDS011;2971;52.420;7.080;2023-07-20T03:55:52;21.57;;;19.60;;
5890;SDS011;2971;52.420;7.080;2023-07-20T03:58:18;21.40;;;19.33;;
5890;SDS011;2971;52.420;7.080;2023-07-20T04:00:46;21.57;;;19.60;;
5890;SDS011;2971;52.420;7.080;2023-07-20T04:03:13;21.30;;;19.43;;
5890;SDS011;2971;52.420;7.080;2023-07-20T04:05:38;21.17;;;19.37;;
5890;SDS011;2971;52.420;7.080;2023-07-20T04:08:03;21.80;;;19.90;;
5890;SDS011;2971;52.420;7.080;2023-07-20T04:10:29;24.17;;;21.87;;
5890;SDS011;2971;52.420;7.080;2023-07-20T04:12:54;24.63;;;22.43;;
5890;SDS011;2971;52.420;7.080;2023-07-20T04:15:20;25.37;;;23.07;;
5890;SDS011;2971;52.420;7.080;2023-07-20T04:17:45;26.57;;;24.17;;
5890;SDS011;2971;52.420;7.080;2023-07-20T04:20:10;26.97;;;24.47;;
5890;SDS011;2971;52.420;7.080;2023-07-20T04:22:36;26.83;;;24.23;;
5890;SDS011;2971;52.420;7.080;2023-07-20T04:25:01;28.87;;;26.20;;
5890;SDS011;2971;52.420;7.080;2023-07-20T04:27:26;29.00;;;26.20;;
5890;SDS011;2971;52.420;7.080;2023-07-20T04:29:52;29.53;;;26.53;;
5890;SDS011;2971;52.420;7.080;2023-07-20T04:32:17;28.80;;;26.10;;
5890;SDS011;2971;52.420;7.080;2023-07-20T04:34:42;29.73;;;26.93;;
5890;SDS011;2971;52.420;7.080;2023-07-20T04:37:08;28.97;;;26.27;;
5890;SDS011;2971;52.420;7.080;2023-07-20T04:39:33;28.17;;;25.50;;
5890;SDS011;2971;52.420;7.080;2023-07-20T04:41:58;27.97;;;25.37;;
5890;SDS011;2971;52.420;7.080;2023-07-20T04:44:24;26.33;;;23.83;;
5890;SDS011;2971;52.420;7.080;2023-07-20T04:46:49;26.40;;;23.90;;
5890;SDS011;2971;52.420;7.080;2023-07-20T04:49:14;25.60;;;23.40;;
5890;SDS011;2971;52.420;7.080;2023-07-20T04:51:40;24.70;;;22.47;;
5890;SDS011;2971;52.420;7.080;2023-07-20T04:54:05;24.67;;;22.47;;
5890;SDS011;2971;52.420;7.080;2023-07-20T04:56:30;26.27;;;23.93;;
5890;SDS011;2971;52.420;7.080;2023-07-20T04:58:56;27.47;;;24.87;;
5890;SDS011;2971;52.420;7.080;2023-07-20T05:01:22;29.27;;;26.60;;
5890;SDS011;2971;52.420;7.080;2023-07-20T05:03:47;28.87;;;26.17;;
5890;SDS011;2971;52.420;7.080;2023-07-20T05:06:12;28.17;;;25.60;;
5890;SDS011;2971;52.420;7.080;2023-07-20T05:08:38;27.20;;;24.57;;
5890;SDS011;2971;52.420;7.080;2023-07-20T05:11:04;26.37;;;23.87;;
5890;SDS011;2971;52.420;7.080;2023-07-20T05:13:29;26.47;;;24.17;;
5890;SDS011;2971;52.420;7.080;2023-07-20T05:15:54;24.97;;;22.60;;
5890;SDS011;2971;52.420;7.080;2023-07-20T05:18:20;24.03;;;21.93;;
5890;SDS011;2971;52.420;7.080;2023-07-20T05:20:46;22.50;;;20.50;;
5890;SDS011;2971;52.420;7.080;2023-07-20T05:23:11;22.17;;;20.27;;
5890;SDS011;2971;52.420;7.080;2023-07-20T05:25:37;21.10;;;19.30;;
5890;SDS011;2971;52.420;7.080;2023-07-20T05:28:02;19.30;;;17.70;;
5890;SDS011;2971;52.420;7.080;2023-07-20T05:30:27;18.47;;;16.97;;
5890;SDS011;2971;52.420;7.080;2023-07-20T05:32:54;17.63;;;16.07;;
5890;SDS011;2971;52.420;7.080;2023-07-20T05:35:20;17.03;;;15.53;;
5890;SDS011;2971;52.420;7.080;2023-07-20T05:37:45;15.40;;;14.10;;
5890;SDS011;2971;52.420;7.080;2023-07-20T05:40:10;14.20;;;13.07;;
5890;SDS011;2971;52.420;7.080;2023-07-20T05:42:37;16.07;;;14.67;;
5890;SDS011;2971;52.420;7.080;2023-07-20T05:45:02;14.77;;;13.57;;
5890;SDS011;2971;52.420;7.080;2023-07-20T05:47:28;13.90;;;12.80;;
5890;SDS011;2971;52.420;7.080;2023-07-20T05:49:54;14.00;;;12.80;;
5890;SDS011;2971;52.420;7.080;2023-07-20T05:52:19;12.13;;;11.17;;
5890;SDS011;2971;52.420;7.080;2023-07-20T05:54:44;11.63;;;10.73;;
5890;SDS011;2971;52.420;7.080;2023-07-20T05:57:09;10.77;;;9.97;;
5890;SDS011;2971;52.420;7.080;2023-07-20T05:59:35;11.20;;;10.27;;
5890;SDS011;2971;52.420;7.080;2023-07-20T06:02:01;11.00;;;10.10;;
5890;SDS011;2971;52.420;7.080;2023-07-20T06:04:26;9.70;;;8.90;;
5890;SDS011;2971;52.420;7.080;2023-07-20T06:06:52;10.30;;;9.40;;
5890;SDS011;2971;52.420;7.080;2023-07-20T06:09:17;9.87;;;9.07;;
5890;SDS011;2971;52.420;7.080;2023-07-20T06:11:42;8.23;;;7.43;;
5890;SDS011;2971;52.420;7.080;2023-07-20T06:14:08;8.50;;;7.77;;
5890;SDS011;2971;52.420;7.080;2023-07-20T06:16:33;8.63;;;7.80;;
5890;SDS011;2971;52.420;7.080;2023-07-20T06:18:59;7.40;;;6.67;;
5890;SDS011;2971;52.420;7.080;2023-07-20T06:21:24;6.57;;;5.97;;
5890;SDS011;2971;52.420;7.080;2023-07-20T06:23:50;6.47;;;5.80;;
5890;SDS011;2971;52.420;7.080;2023-07-20T06:26:15;6.20;;;5.70;;
5890;SDS011;2971;52.420;7.080;2023-07-20T06:28:40;6.20;;;5.63;;
5890;SDS011;2971;52.420;7.080;2023-07-20T06:31:06;5.63;;;5.07;;
5890;SDS011;2971;52.420;7.080;2023-07-20T06:33:31;5.50;;;5.00;;
5890;SDS011;2971;52.420;7.080;2023-07-20T06:35:57;5.60;;;5.10;;
5890;SDS011;2971;52.420;7.080;2023-07-20T06:38:22;5.47;;;5.07;;
5890;SDS011;2971;52.420;7.080;2023-07-20T06:40:51;6.30;;;5.70;;
5890;SDS011;2971;52.420;7.080;2023-07-20T06:43:16;5.40;;;4.90;;
5890;SDS011;2971;52.420;7.080;2023-07-20T06:45:42;4.53;;;3.80;;
5890;SDS011;2971;52.420;7.080;2023-07-20T06:48:07;4.27;;;3.70;;
5890;SDS011;2971;52.420;7.080;2023-07-20T06:50:32;4.53;;;4.00;;
5890;SDS011;2971;52.420;7.080;2023-07-20T06:52:58;3.77;;;3.47;;
5890;SDS011;2971;52.420;7.080;2023-07-20T06:55:25;5.67;;;3.97;;
5890;SDS011;2971;52.420;7.080;2023-07-20T06:57:50;4.63;;;3.83;;
5890;SDS011;2971;52.420;7.080;2023-07-20T07:00:16;4.83;;;4.00;;
5890;SDS011;2971;52.420;7.080;2023-07-20T07:02:41;4.00;;;3.60;;
5890;SDS011;2971;52.420;7.080;2023-07-20T07:05:06;5.50;;;3.70;;
5890;SDS011;2971;52.420;7.080;2023-07-20T07:07:32;6.20;;;4.00;;
5890;SDS011;2971;52.420;7.080;2023-07-20T07:09:57;3.50;;;3.20;;
5890;SDS011;2971;52.420;7.080;2023-07-20T07:12:22;4.00;;;3.20;;
5890;SDS011;2971;52.420;7.080;2023-07-20T07:14:48;4.80;;;3.30;;
5890;SDS011;2971;52.420;7.080;2023-07-20T07:17:13;4.40;;;3.27;;
5890;SDS011;2971;52.420;7.080;2023-07-20T07:19:39;4.03;;;2.90;;
5890;SDS011;2971;52.420;7.080;2023-07-20T07:22:05;3.30;;;2.30;;
5890;SDS011;2971;52.420;7.080;2023-07-20T07:24:31;5.17;;;2.30;;
5890;SDS011;2971;52.420;7.080;2023-07-20T07:26:59;3.00;;;2.70;;
5890;SDS011;2971;52.420;7.080;2023-07-20T07:29:24;2.67;;;2.47;;
5890;SDS011;2971;52.420;7.080;2023-07-20T07:31:50;3.40;;;2.30;;
5890;SDS011;2971;52.420;7.080;2023-07-20T07:34:15;4.37;;;2.10;;
5890;SDS011;2971;52.420;7.080;2023-07-20T07:36:41;3.60;;;2.07;;
5890;SDS011;2971;52.420;7.080;2023-07-20T07:39:06;3.77;;;1.60;;
5890;SDS011;2971;52.420;7.080;2023-07-20T07:41:31;3.33;;;1.60;;
5890;SDS011;2971;52.420;7.080;2023-07-20T07:43:56;2.37;;;1.70;;
5890;SDS011;2971;52.420;7.080;2023-07-20T07:46:22;1.77;;;1.50;;
5890;SDS011;2971;52.420;7.080;2023-07-20T07:48:47;3.53;;;1.70;;
5890;SDS011;2971;52.420;7.080;2023-07-20T07:51:12;2.53;;;1.50;;
5890;SDS011;2971;52.420;7.080;2023-07-20T07:53:38;3.07;;;1.43;;
5890;SDS011;2971;52.420;7.080;2023-07-20T07:56:06;3.30;;;1.53;;
5890;SDS011;2971;52.420;7.080;2023-07-20T07:58:31;3.17;;;1.50;;
5890;SDS011;2971;52.420;7.080;2023-07-20T08:00:57;3.13;;;1.63;;
5890;SDS011;2971;52.420;7.080;2023-07-20T08:03:22;2.37;;;1.37;;
5890;SDS011;2971;52.420;7.080;2023-07-20T08:05:49;1.70;;;1.30;;
5890;SDS011;2971;52.420;7.080;2023-07-20T08:08:14;2.23;;;1.50;;
5890;SDS011;2971;52.420;7.080;2023-07-20T08:10:39;1.53;;;1.30;;
5890;SDS011;2971;52.420;7.080;2023-07-20T08:13:05;1.53;;;1.30;;
5890;SDS011;2971;52.420;7.080;2023-07-20T08:15:30;2.37;;;1.40;;
5890;SDS011;2971;52.420;7.080;2023-07-20T08:17:55;2.23;;;1.30;;
5890;SDS011;2971;52.420;7.080;2023-07-20T08:20:21;3.03;;;1.30;;
5890;SDS011;2971;52.420;7.080;2023-07-20T08:22:51;2.00;;;1.60;;
5890;SDS011;2971;52.420;7.080;2023-07-20T08:25:17;1.57;;;1.33;;
5890;SDS011;2971;52.420;7.080;2023-07-20T08:27:42;2.23;;;1.20;;
5890;SDS011;2971;52.420;7.080;2023-07-20T08:30:07;1.77;;;1.30;;
5890;SDS011;2971;52.420;7.080;2023-07-20T08:32:33;2.13;;;1.23;;
5890;SDS011;2971;52.420;7.080;2023-07-20T08:34:58;1.97;;;1.37;;
5890;SDS011;2971;52.420;7.080;2023-07-20T08:37:23;2.13;;;1.20;;
5890;SDS011;2971;52.420;7.080;2023-07-20T08:39:49;5.87;;;1.47;;
5890;SDS011;2971;52.420;7.080;2023-07-20T08:42:14;2.20;;;1.50;;
5890;SDS011;2971;52.420;7.080;2023-07-20T08:44:40;2.37;;;1.40;;
5890;SDS011;2971;52.420;7.080;2023-07-20T08:47:06;2.77;;;1.50;;
5890;SDS011;2971;52.420;7.080;2023-07-20T08:49:32;3.27;;;1.50;;
5890;SDS011;2971;52.420;7.080;2023-07-20T08:51:57;2.20;;;1.40;;
5890;SDS011;2971;52.420;7.080;2023-07-20T08:54:23;2.07;;;1.20;;
5890;SDS011;2971;52.420;7.080;2023-07-20T08:56:49;1.30;;;1.20;;
5890;SDS011;2971;52.420;7.080;2023-07-20T08:59:16;2.57;;;1.37;;
5890;SDS011;2971;52.420;7.080;2023-07-20T09:01:41;2.07;;;1.30;;
5890;SDS011;2971;52.420;7.080;2023-07-20T09:04:08;1.90;;;1.40;;
5890;SDS011;2971;52.420;7.080;2023-07-20T09:06:33;2.37;;;1.50;;
5890;SDS011;2971;52.420;7.080;2023-07-20T09:09:00;2.60;;;1.30;;
5890;SDS011;2971;52.420;7.080;2023-07-20T09:11:25;2.80;;;1.50;;
5890;SDS011;2971;52.420;7.080;2023-07-20T09:14:11;1.50;;;1.40;;
5890;SDS011;2971;52.420;7.080;2023-07-20T09:16:48;2.33;;;1.40;;
5890;SDS011;2971;52.420;7.080;2023-07-20T09:19:14;1.90;;;1.30;;
5890;SDS011;2971;52.420;7.080;2023-07-20T09:21:40;1.20;;;1.10;;
5890;SDS011;2971;52.420;7.080;2023-07-20T09:24:05;1.43;;;1.20;;
5890;SDS011;2971;52.420;7.080;2023-07-20T09:26:31;3.60;;;1.40;;
5890;SDS011;2971;52.420;7.080;2023-07-20T09:29:05;2.10;;;1.20;;
5890;SDS011;2971;52.420;7.080;2023-07-20T09:31:32;2.00;;;1.20;;
5890;SDS011;2971;52.420;7.080;2023-07-20T09:33:57;2.73;;;1.80;;
5890;SDS011;2971;52.420;7.080;2023-07-20T09:36:22;3.23;;;1.90;;
5890;SDS011;2971;52.420;7.080;2023-07-20T09:38:48;3.73;;;1.80;;
5890;SDS011;2971;52.420;7.080;2023-07-20T09:41:14;10.47;;;5.60;;
5890;SDS011;2971;52.420;7.080;2023-07-20T09:43:43;2.83;;;2.10;;
5890;SDS011;2971;52.420;7.080;2023-07-20T09:46:08;24.97;;;15.63;;
5890;SDS011;2971;52.420;7.080;2023-07-20T09:48:33;1.90;;;1.30;;
5890;SDS011;2971;52.420;7.080;2023-07-20T09:50:59;4.97;;;2.23;;
5890;SDS011;2971;52.420;7.080;2023-07-20T09:53:25;4.23;;;2.10;;
5890;SDS011;2971;52.420;7.080;2023-07-20T09:55:52;2.73;;;1.40;;
5890;SDS011;2971;52.420;7.080;2023-07-20T09:58:17;1.93;;;1.40;;
5890;SDS011;2971;52.420;7.080;2023-07-20T10:00:43;2.00;;;1.50;;
5890;SDS011;2971;52.420;7.080;2023-07-20T10:03:11;2.47;;;1.60;;
5890;SDS011;2971;52.420;7.080;2023-07-20T10:05:40;3.33;;;1.57;;
5890;SDS011;2971;52.420;7.080;2023-07-20T10:08:08;2.43;;;1.30;;
5890;SDS011;2971;52.420;7.080;2023-07-20T10:10:36;2.00;;;1.40;;
5890;SDS011;2971;52.420;7.080;2023-07-20T10:13:01;2.03;;;1.30;;
5890;SDS011;2971;52.420;7.080;2023-07-20T10:18:02;1.97;;;1.40;;
5890;SDS011;2971;52.420;7.080;2023-07-20T10:20:28;3.07;;;1.30;;
5890;SDS011;2971;52.420;7.080;2023-07-20T10:22:54;2.13;;;1.27;;
5890;SDS011;2971;52.420;7.080;2023-07-20T10:25:22;1.50;;;1.20;;
5890;SDS011;2971;52.420;7.080;2023-07-20T10:27:48;1.90;;;1.30;;
5890;SDS011;2971;52.420;7.080;2023-07-20T10:30:14;3.03;;;1.50;;
5890;SDS011;2971;52.420;7.080;2023-07-20T10:32:39;1.67;;;1.40;;
5890;SDS011;2971;52.420;7.080;2023-07-20T10:35:11;1.50;;;1.30;;
5890;SDS011;2971;52.420;7.080;2023-07-20T10:37:51;1.50;;;1.20;;
5890;SDS011;2971;52.420;7.080;2023-07-20T10:40:23;2.03;;;1.20;;
5890;SDS011;2971;52.420;7.080;2023-07-20T10:42:48;1.40;;;1.30;;
5890;SDS011;2971;52.420;7.080;2023-07-20T10:45:14;2.97;;;1.20;;
5890;SDS011;2971;52.420;7.080;2023-07-20T10:47:45;1.30;;;1.20;;
5890;SDS011;2971;52.420;7.080;2023-07-20T10:50:11;2.43;;;1.50;;
5890;SDS011;2971;52.420;7.080;2023-07-20T10:52:37;1.60;;;1.40;;
5890;SDS011;2971;52.420;7.080;2023-07-20T10:55:11;3.00;;;1.30;;
5890;SDS011;2971;52.420;7.080;2023-07-20T10:57:39;2.80;;;2.13;;
5890;SDS011;2971;52.420;7.080;2023-07-20T11:00:08;3.17;;;2.13;;
5890;SDS011;2971;52.420;7.080;2023-07-20T11:02:48;1.57;;;1.47;;
5890;SDS011;2971;52.420;7.080;2023-07-20T11:07:59;4.40;;;2.40;;
5890;SDS011;2971;52.420;7.080;2023-07-20T11:10:24;4.27;;;2.20;;
5890;SDS011;2971;52.420;7.080;2023-07-20T11:18:17;4.07;;;3.20;;
5890;SDS011;2971;52.420;7.080;2023-07-20T11:20:43;4.20;;;3.00;;
5890;SDS011;2971;52.420;7.080;2023-07-20T11:23:08;3.93;;;3.43;;
5890;SDS011;2971;52.420;7.080;2023-07-20T11:25:40;4.03;;;3.47;;
5890;SDS011;2971;52.420;7.080;2023-07-20T11:28:08;4.93;;;3.53;;
5890;SDS011;2971;52.420;7.080;2023-07-20T11:30:39;4.43;;;3.13;;
5890;SDS011;2971;52.420;7.080;2023-07-20T11:33:05;4.10;;;3.40;;
5890;SDS011;2971;52.420;7.080;2023-07-20T11:35:30;3.83;;;3.00;;
5890;SDS011;2971;52.420;7.080;2023-07-20T11:37:56;3.97;;;3.20;;
5890;SDS011;2971;52.420;7.080;2023-07-20T11:40:22;3.40;;;3.10;;
5890;SDS011;2971;52.420;7.080;2023-07-20T11:42:47;4.40;;;3.50;;
5890;SDS011;2971;52.420;7.080;2023-07-20T11:45:15;6.20;;;3.77;;
5890;SDS011;2971;52.420;7.080;2023-07-20T11:47:41;3.97;;;3.17;;
5890;SDS011;2971;52.420;7.080;2023-07-20T11:50:10;3.57;;;3.00;;
5890;SDS011;2971;52.420;7.080;2023-07-20T11:52:36;2.40;;;2.20;;
5890;SDS011;2971;52.420;7.080;2023-07-20T11:55:01;3.50;;;2.40;;
5890;SDS011;2971;52.420;7.080;2023-07-20T11:57:27;3.37;;;2.70;;
5890;SDS011;2971;52.420;7.080;2023-07-20T11:59:56;3.47;;;2.40;;
5890;SDS011;2971;52.420;7.080;2023-07-20T12:02:26;2.77;;;1.90;;
5890;SDS011;2971;52.420;7.080;2023-07-20T12:04:52;3.30;;;2.20;;
5890;SDS011;2971;52.420;7.080;2023-07-20T12:07:18;2.60;;;2.10;;
5890;SDS011;2971;52.420;7.080;2023-07-20T12:09:43;2.90;;;2.47;;
5890;SDS011;2971;52.420;7.080;2023-07-20T12:12:09;2.63;;;2.23;;
5890;SDS011;2971;52.420;7.080;2023-07-20T12:14:37;1.97;;;1.80;;
5890;SDS011;2971;52.420;7.080;2023-07-20T12:17:02;1.93;;;1.80;;
5890;SDS011;2971;52.420;7.080;2023-07-20T12:19:27;2.40;;;1.60;;
5890;SDS011;2971;52.420;7.080;2023-07-20T12:21:56;1.70;;;1.60;;
5890;SDS011;2971;52.420;7.080;2023-07-20T12:24:22;1.40;;;1.10;;
5890;SDS011;2971;52.420;7.080;2023-07-20T12:26:47;2.10;;;1.40;;
5890;SDS011;2971;52.420;7.080;2023-07-20T12:29:12;1.40;;;1.10;;
5890;SDS011;2971;52.420;7.080;2023-07-20T12:31:38;1.20;;;1.10;;
5890;SDS011;2971;52.420;7.080;2023-07-20T12:34:03;2.43;;;1.10;;
5890;SDS011;2971;52.420;7.080;2023-07-20T12:36:28;0.90;;;0.90;;
5890;SDS011;2971;52.420;7.080;2023-07-20T12:38:53;1.13;;;0.93;;
5890;SDS011;2971;52.420;7.080;2023-07-20T12:41:19;1.57;;;1.20;;
5890;SDS011;2971;52.420;7.080;2023-07-20T12:43:44;1.30;;;1.20;;
5890;SDS011;2971;52.420;7.080;2023-07-20T12:46:10;1.53;;;1.20;;
5890;SDS011;2971;52.420;7.080;2023-07-20T12:48:39;1.30;;;1.20;;
5890;SDS011;2971;52.420;7.080;2023-07-20T12:51:07;1.40;;;1.13;;
5890;SDS011;2971;52.420;7.080;2023-07-20T12:53:32;1.40;;;1.20;;
5890;SDS011;2971;52.420;7.080;2023-07-20T12:56:01;2.03;;;1.30;;
5890;SDS011;2971;52.420;7.080;2023-07-20T12:58:26;2.07;;;1.20;;
5890;SDS011;2971;52.420;7.080;2023-07-20T13:00:52;1.15;;;1.05;;
5890;SDS011;2971;52.420;7.080;2023-07-20T13:03:17;1.38;;;1.27;;
5890;SDS011;2971;52.420;7.080;2023-07-20T13:05:44;1.58;;;1.20;;
5890;SDS011;2971;52.420;7.080;2023-07-20T13:08:09;2.55;;;1.40;;
5890;SDS011;2971;52.420;7.080;2023-07-20T13:10:35;1.30;;;1.20;;
5890;SDS011;2971;52.420;7.080;2023-07-20T13:13:01;1.80;;;1.30;;
5890;SDS011;2971;52.420;7.080;2023-07-20T13:15:29;1.73;;;1.17;;
5890;SDS011;2971;52.420;7.080;2023-07-20T13:17:56;1.52;;;1.25;;
5890;SDS011;2971;52.420;7.080;2023-07-20T13:20:21;2.80;;;1.30;;
5890;SDS011;2971;52.420;7.080;2023-07-20T13:22:46;1.30;;;1.20;;
5890;SDS011;2971;52.420;7.080;2023-07-20T13:25:12;1.58;;;1.20;;
5890;SDS011;2971;52.420;7.080;2023-07-20T13:27:37;1.60;;;1.50;;
5890;SDS011;2971;52.420;7.080;2023-07-20T13:30:03;1.33;;;1.23;;
5890;SDS011;2971;52.420;7.080;2023-07-20T13:32:32;1.27;;;1.15;;
5890;SDS011;2971;52.420;7.080;2023-07-20T13:34:59;2.65;;;1.30;;
5890;SDS011;2971;52.420;7.080;2023-07-20T13:37:24;4.30;;;1.40;;
5890;SDS011;2971;52.420;7.080;2023-07-20T13:39:50;1.85;;;1.50;;
5890;SDS011;2971;52.420;7.080;2023-07-20T13:42:15;2.05;;;1.13;;
5890;SDS011;2971;52.420;7.080;2023-07-20T13:44:41;1.42;;;1.20;;
5890;SDS011;2971;52.420;7.080;2023-07-20T13:47:06;2.47;;;1.00;;
5890;SDS011;2971;52.420;7.080;2023-07-20T13:49:31;1.45;;;1.30;;
5890;SDS011;2971;52.420;7.080;2023-07-20T13:51:57;5.47;;;1.40;;
5890;SDS011;2971;52.420;7.080;2023-07-20T13:54:23;1.30;;;1.20;;
5890;SDS011;2971;52.420;7.080;2023-07-20T13:56:48;2.05;;;1.23;;
5890;SDS011;2971;52.420;7.080;2023-07-20T13:59:13;1.42;;;1.30;;
5890;SDS011;2971;52.420;7.080;2023-07-20T14:01:39;4.75;;;1.50;;
5890;SDS011;2971;52.420;7.080;2023-07-20T14:04:04;1.25;;;1.13;;
5890;SDS011;2971;52.420;7.080;2023-07-20T14:06:30;1.88;;;1.33;;
5890;SDS011;2971;52.420;7.080;2023-07-20T14:08:55;1.30;;;1.20;;
5890;SDS011;2971;52.420;7.080;2023-07-20T14:11:22;1.30;;;1.20;;
5890;SDS011;2971;52.420;7.080;2023-07-20T14:13:47;1.80;;;1.17;;
5890;SDS011;2971;52.420;7.080;2023-07-20T14:16:13;3.07;;;1.40;;
5890;SDS011;2971;52.420;7.080;2023-07-20T14:18:38;2.70;;;1.40;;
5890;SDS011;2971;52.420;7.080;2023-07-20T14:21:03;2.13;;;1.70;;
5890;SDS011;2971;52.420;7.080;2023-07-20T14:23:30;1.70;;;1.40;;
5890;SDS011;2971;52.420;7.080;2023-07-20T14:25:55;1.80;;;1.40;;
5890;SDS011;2971;52.420;7.080;2023-07-20T14:28:21;1.50;;;1.40;;
5890;SDS011;2971;52.420;7.080;2023-07-20T14:30:46;1.57;;;1.47;;
5890;SDS011;2971;52.420;7.080;2023-07-20T14:33:12;1.93;;;1.43;;
5890;SDS011;2971;52.420;7.080;2023-07-20T14:35:37;1.77;;;1.50;;
5890;SDS011;2971;52.420;7.080;2023-07-20T14:38:02;3.73;;;1.57;;
5890;SDS011;2971;52.420;7.080;2023-07-20T14:40:27;1.90;;;1.70;;
5890;SDS011;2971;52.420;7.080;2023-07-20T14:42:53;2.40;;;1.47;;
5890;SDS011;2971;52.420;7.080;2023-07-20T14:45:18;1.40;;;1.30;;
5890;SDS011;2971;52.420;7.080;2023-07-20T14:47:44;2.03;;;1.60;;
5890;SDS011;2971;52.420;7.080;2023-07-20T14:50:10;1.40;;;1.30;;
5890;SDS011;2971;52.420;7.080;2023-07-20T14:52:35;2.27;;;1.60;;
5890;SDS011;2971;52.420;7.080;2023-07-20T14:55:01;1.80;;;1.40;;
5890;SDS011;2971;52.420;7.080;2023-07-20T14:57:26;2.33;;;1.70;;
5890;SDS011;2971;52.420;7.080;2023-07-20T14:59:51;2.97;;;1.40;;
5890;SDS011;2971;52.420;7.080;2023-07-20T15:02:17;2.77;;;2.10;;
5890;SDS011;2971;52.420;7.080;2023-07-20T15:04:49;2.97;;;2.00;;
5890;SDS011;2971;52.420;7.080;2023-07-20T15:07:15;1.87;;;1.47;;
5890;SDS011;2971;52.420;7.080;2023-07-20T15:09:41;1.60;;;1.43;;
5890;SDS011;2971;52.420;7.080;2023-07-20T15:12:06;2.73;;;1.70;;
5890;SDS011;2971;52.420;7.080;2023-07-20T15:14:31;1.70;;;1.60;;
5890;SDS011;2971;52.420;7.080;2023-07-20T15:16:57;1.52;;;1.33;;